createdAt,value
2023-05-08T00:00:35.035Z,99.99
2023-05-08T00:01:34.968Z,99.99
2023-05-08T00:02:34.984Z,99.99
2023-05-08T00:03:34.909Z,99.99
2023-05-08T00:04:34.756Z,99.99
2023-05-08T00:05:34.643Z,99.99
2023-05-08T00:06:34.557Z,99.99
2023-05-08T00:07:34.481Z,99.99
2023-05-08T00:08:34.413Z,99.99
2023-05-08T00:09:34.336Z,99.99
2023-05-08T00:10:34.247Z,99.99
2023-05-08T00:11:34.164Z,99.99
2023-05-08T00:12:34.090Z,99.99
2023-05-08T00:13:34.006Z,99.99
2023-05-08T00:14:33.939Z,99.99
2023-05-08T00:15:33.851Z,99.99
2023-05-08T00:16:33.797Z,99.99
2023-05-08T00:17:33.724Z,99.99
2023-05-08T00:18:33.609Z,99.99
2023-05-08T00:19:33.531Z,99.99
2023-05-08T00:20:33.459Z,99.99
2023-05-08T00:21:33.371Z,99.99
2023-05-08T00:22:33.292Z,99.99
2023-05-08T00:23:33.217Z,99.99
2023-05-08T00:24:33.144Z,99.99
2023-05-08T00:25:33.053Z,99.99
2023-05-08T00:26:32.975Z,99.99
2023-05-08T00:27:32.891Z,99.99
2023-05-08T00:28:32.821Z,99.99
2023-05-08T00:29:32.736Z,99.99
2023-05-08T00:30:32.650Z,99.99
2023-05-08T00:31:32.619Z,99.99
2023-05-08T00:32:32.536Z,99.99
2023-05-08T00:33:32.435Z,99.99
2023-05-08T00:34:32.338Z,99.99
2023-05-08T00:35:32.261Z,99.99
2023-05-08T00:36:32.181Z,99.99
2023-05-08T00:37:32.094Z,99.99
2023-05-08T00:38:32.016Z,99.99
2023-05-08T00:39:31.938Z,99.99
2023-05-08T00:40:31.867Z,99.99
2023-05-08T00:41:31.784Z,99.99
2023-05-08T00:42:31.710Z,99.99
2023-05-08T00:43:31.627Z,99.99
2023-05-08T00:44:31.544Z,99.99
2023-05-08T00:45:31.468Z,99.99
2023-05-08T00:46:31.431Z,99.99
2023-05-08T00:47:31.344Z,99.99
2023-05-08T00:48:31.234Z,99.99
2023-05-08T00:49:31.145Z,99.80
2023-05-08T00:50:31.068Z,99.99
2023-05-08T00:51:30.982Z,99.99
2023-05-08T00:52:30.900Z,99.43
2023-05-08T00:53:30.857Z,99.80
2023-05-08T00:54:30.748Z,99.80
2023-05-08T00:55:30.671Z,99.62
2023-05-08T00:56:30.587Z,99.90
2023-05-08T00:57:30.510Z,99.23
2023-05-08T00:58:30.436Z,99.71
2023-05-08T00:59:30.344Z,99.90
2023-05-08T01:00:30.268Z,99.99
2023-05-08T01:01:30.269Z,99.23
2023-05-08T01:02:30.151Z,99.23
2023-05-08T01:03:30.142Z,99.52
2023-05-08T01:04:29.947Z,99.23
2023-05-08T01:05:29.867Z,99.33
2023-05-08T01:06:29.788Z,99.23
2023-05-08T01:07:29.703Z,99.04
2023-05-08T01:08:29.626Z,97.89
2023-05-08T01:09:29.551Z,98.57
2023-05-08T01:10:29.463Z,98.94
2023-05-08T01:11:29.389Z,98.85
2023-05-08T01:12:29.318Z,98.66
2023-05-08T01:13:29.229Z,98.94
2023-05-08T01:14:29.158Z,98.37
2023-05-08T01:15:29.070Z,98.03
2023-05-08T01:16:29.004Z,97.56
2023-05-08T01:17:28.922Z,97.61
2023-05-08T01:18:28.830Z,98.28
2023-05-08T01:19:28.749Z,98.28
2023-05-08T01:20:28.670Z,98.18
2023-05-08T01:21:28.605Z,98.18
2023-05-08T01:22:28.512Z,97.80
2023-05-08T01:23:28.429Z,98.47
2023-05-08T01:24:28.346Z,98.57
2023-05-08T01:25:28.266Z,98.18
2023-05-08T01:26:28.201Z,98.18
2023-05-08T01:27:28.121Z,98.37
2023-05-08T01:28:28.025Z,97.61
2023-05-08T01:29:27.949Z,98.28
2023-05-08T01:30:27.878Z,97.99
2023-05-08T01:31:27.788Z,97.71
2023-05-08T01:32:27.720Z,97.71
2023-05-08T01:33:27.669Z,97.94
2023-05-08T01:34:27.548Z,97.56
2023-05-08T01:35:27.472Z,98.13
2023-05-08T01:36:27.389Z,97.75
2023-05-08T01:37:27.311Z,97.85
2023-05-08T01:38:27.239Z,97.66
2023-05-08T01:39:27.146Z,97.37
2023-05-08T01:40:27.072Z,97.85
2023-05-08T01:41:26.996Z,97.75
2023-05-08T01:42:26.920Z,97.85
2023-05-08T01:43:26.855Z,97.85
2023-05-08T01:44:26.752Z,97.75
2023-05-08T01:45:26.695Z,97.75
2023-05-08T01:46:26.686Z,98.03
2023-05-08T01:47:26.555Z,97.66
2023-05-08T01:48:26.435Z,97.94
2023-05-08T01:49:26.346Z,96.80
2023-05-08T01:50:26.267Z,97.75
2023-05-08T01:51:26.203Z,97.27
2023-05-08T01:52:26.112Z,97.27
2023-05-08T01:53:26.043Z,97.37
2023-05-08T01:54:25.951Z,96.80
2023-05-08T01:55:25.875Z,97.27
2023-05-08T01:56:25.805Z,97.18
2023-05-08T01:57:25.717Z,96.80
2023-05-08T01:58:25.629Z,96.80
2023-05-08T01:59:25.550Z,96.51
2023-05-08T02:00:25.494Z,97.37
2023-05-08T02:01:25.691Z,96.22
2023-05-08T02:02:25.368Z,96.22
2023-05-08T02:03:25.259Z,96.32
2023-05-08T02:04:25.230Z,96.32
2023-05-08T02:05:25.067Z,96.22
2023-05-08T02:06:24.996Z,96.22
2023-05-08T02:07:24.908Z,97.27
2023-05-08T02:08:24.827Z,96.42
2023-05-08T02:09:24.743Z,96.98
2023-05-08T02:10:24.669Z,97.03
2023-05-08T02:11:24.593Z,96.51
2023-05-08T02:12:24.509Z,96.75
2023-05-08T02:13:24.503Z,95.84
2023-05-08T02:14:24.350Z,96.22
2023-05-08T02:15:24.263Z,95.84
2023-05-08T02:16:24.218Z,96.61
2023-05-08T02:17:24.123Z,96.27
2023-05-08T02:18:24.027Z,95.79
2023-05-08T02:19:23.944Z,95.65
2023-05-08T02:20:23.894Z,96.08
2023-05-08T02:21:23.791Z,96.08
2023-05-08T02:22:23.706Z,96.17
2023-05-08T02:23:23.628Z,95.51
2023-05-08T02:24:23.541Z,95.32
2023-05-08T02:25:23.459Z,96.08
2023-05-08T02:26:23.388Z,95.98
2023-05-08T02:27:23.316Z,95.79
2023-05-08T02:28:23.219Z,95.98
2023-05-08T02:29:23.139Z,95.70
2023-05-08T02:30:23.060Z,95.98
2023-05-08T02:31:23.013Z,95.32
2023-05-08T02:32:23.005Z,95.22
2023-05-08T02:33:22.823Z,96.27
2023-05-08T02:34:22.841Z,95.79
2023-05-08T02:35:22.671Z,95.70
2023-05-08T02:36:22.579Z,96.17
2023-05-08T02:37:22.553Z,96.27
2023-05-08T02:38:22.427Z,96.17
2023-05-08T02:39:22.357Z,95.51
2023-05-08T02:40:22.275Z,95.22
2023-05-08T02:41:22.192Z,95.22
2023-05-08T02:42:22.089Z,95.79
2023-05-08T02:43:22.032Z,95.41
2023-05-08T02:44:21.934Z,95.61
2023-05-08T02:45:21.853Z,95.51
2023-05-08T02:46:21.781Z,94.74
2023-05-08T02:47:21.710Z,96.17
2023-05-08T02:48:21.611Z,95.98
2023-05-08T02:49:21.545Z,95.32
2023-05-08T02:50:21.450Z,95.61
2023-05-08T02:51:21.374Z,94.07
2023-05-08T02:52:21.286Z,95.61
2023-05-08T02:53:21.203Z,94.84
2023-05-08T02:54:21.127Z,94.84
2023-05-08T02:55:21.050Z,94.65
2023-05-08T02:56:20.963Z,94.84
2023-05-08T02:57:20.891Z,95.51
2023-05-08T02:58:20.809Z,95.41
2023-05-08T02:59:20.746Z,94.36
2023-05-08T03:00:20.649Z,93.88
2023-05-08T03:01:20.598Z,94.84
2023-05-08T03:02:20.494Z,94.36
2023-05-08T03:03:20.463Z,94.36
2023-05-08T03:04:20.316Z,95.41
2023-05-08T03:05:20.237Z,94.46
2023-05-08T03:06:20.287Z,95.22
2023-05-08T03:07:20.080Z,94.36
2023-05-08T03:08:19.999Z,95.03
2023-05-08T03:09:19.917Z,94.74
2023-05-08T03:10:19.836Z,94.12
2023-05-08T03:11:19.753Z,93.70
2023-05-08T03:12:19.674Z,93.79
2023-05-08T03:13:19.663Z,93.60
2023-05-08T03:14:19.515Z,93.51
2023-05-08T03:15:19.436Z,93.31
2023-05-08T03:16:19.436Z,94.27
2023-05-08T03:17:19.271Z,94.46
2023-05-08T03:18:19.216Z,94.27
2023-05-08T03:19:20.344Z,93.31
2023-05-08T03:20:19.042Z,92.93
2023-05-08T03:21:18.953Z,92.46
2023-05-08T03:22:18.876Z,93.31
2023-05-08T03:23:18.794Z,92.46
2023-05-08T03:24:18.704Z,92.36
2023-05-08T03:25:18.625Z,93.51
2023-05-08T03:26:18.548Z,93.79
2023-05-08T03:27:18.464Z,94.36
2023-05-08T03:28:18.386Z,94.27
2023-05-08T03:29:18.306Z,94.65
2023-05-08T03:30:18.221Z,95.22
2023-05-08T03:31:18.165Z,95.32
2023-05-08T03:32:18.074Z,95.41
2023-05-08T03:33:17.991Z,95.37
2023-05-08T03:34:17.900Z,95.12
2023-05-08T03:35:17.821Z,94.74
2023-05-08T03:36:17.758Z,95.17
2023-05-08T03:37:17.661Z,94.22
2023-05-08T03:38:17.579Z,94.60
2023-05-08T03:39:17.498Z,93.74
2023-05-08T03:40:17.422Z,93.36
2023-05-08T03:41:17.336Z,93.27
2023-05-08T03:42:17.258Z,93.65
2023-05-08T03:43:17.173Z,93.55
2023-05-08T03:44:17.095Z,92.60
2023-05-08T03:45:17.032Z,93.27
2023-05-08T03:46:16.977Z,93.27
2023-05-08T03:47:16.860Z,92.60
2023-05-08T03:48:16.844Z,94.51
2023-05-08T03:49:16.690Z,93.27
2023-05-08T03:50:16.611Z,92.79
2023-05-08T03:51:16.529Z,92.69
2023-05-08T03:52:16.457Z,91.46
2023-05-08T03:53:16.374Z,90.31
2023-05-08T03:54:16.291Z,92.41
2023-05-08T03:55:16.206Z,91.46
2023-05-08T03:56:16.127Z,91.55
2023-05-08T03:57:16.072Z,91.55
2023-05-08T03:58:15.976Z,92.03
2023-05-08T03:59:15.891Z,91.74
2023-05-08T04:00:15.807Z,91.64
2023-05-08T04:01:15.728Z,92.41
2023-05-08T04:02:15.735Z,91.55
2023-05-08T04:03:15.629Z,92.32
2023-05-08T04:04:15.643Z,91.74
2023-05-08T04:05:15.411Z,91.36
2023-05-08T04:06:15.326Z,92.12
2023-05-08T04:07:15.250Z,92.50
2023-05-08T04:08:15.190Z,91.36
2023-05-08T04:09:15.087Z,91.83
2023-05-08T04:10:15.257Z,91.83
2023-05-08T04:11:14.932Z,90.98
2023-05-08T04:12:14.861Z,91.55
2023-05-08T04:13:14.796Z,92.03
2023-05-08T04:14:14.687Z,91.55
2023-05-08T04:15:14.730Z,90.41
2023-05-08T04:16:14.553Z,90.59
2023-05-08T04:17:14.447Z,90.69
2023-05-08T04:18:14.359Z,90.79
2023-05-08T04:19:14.284Z,91.46
2023-05-08T04:20:14.201Z,90.79
2023-05-08T04:21:14.121Z,90.41
2023-05-08T04:22:14.043Z,90.79
2023-05-08T04:23:13.963Z,90.98
2023-05-08T04:24:13.879Z,90.59
2023-05-08T04:25:14.039Z,91.74
2023-05-08T04:26:14.660Z,92.41
2023-05-08T04:27:13.652Z,91.83
2023-05-08T04:28:13.557Z,91.46
2023-05-08T04:29:13.470Z,90.79
2023-05-08T04:30:13.400Z,91.55
2023-05-08T04:31:13.312Z,90.88
2023-05-08T04:32:13.337Z,90.41
2023-05-08T04:33:13.226Z,92.22
2023-05-08T04:34:13.074Z,91.55
2023-05-08T04:35:13.227Z,90.79
2023-05-08T04:36:12.916Z,91.36
2023-05-08T04:37:12.842Z,91.07
2023-05-08T04:38:12.747Z,91.83
2023-05-08T04:39:12.666Z,90.98
2023-05-08T04:40:12.602Z,90.79
2023-05-08T04:41:12.571Z,91.74
2023-05-08T04:42:12.439Z,91.93
2023-05-08T04:43:12.348Z,91.36
2023-05-08T04:44:12.265Z,90.59
2023-05-08T04:45:12.448Z,90.22
2023-05-08T04:46:12.113Z,90.79
2023-05-08T04:47:12.020Z,91.17
2023-05-08T04:48:11.939Z,90.41
2023-05-08T04:49:11.861Z,90.22
2023-05-08T04:50:11.784Z,89.93
2023-05-08T04:51:11.696Z,90.59
2023-05-08T04:52:11.633Z,90.69
2023-05-08T04:53:11.566Z,90.50
2023-05-08T04:54:11.458Z,90.59
2023-05-08T04:55:11.604Z,90.50
2023-05-08T04:56:11.305Z,90.22
2023-05-08T04:57:11.235Z,89.45
2023-05-08T04:58:11.207Z,90.41
2023-05-08T04:59:11.048Z,90.41
2023-05-08T05:00:10.979Z,91.36
2023-05-08T05:01:10.930Z,90.88
2023-05-08T05:02:10.806Z,89.45
2023-05-08T05:03:10.779Z,90.03
2023-05-08T05:04:10.753Z,90.69
2023-05-08T05:05:10.690Z,90.98
2023-05-08T05:06:10.473Z,90.03
2023-05-08T05:07:10.400Z,91.46
2023-05-08T05:08:10.323Z,90.50
2023-05-08T05:09:10.241Z,91.74
2023-05-08T05:10:10.163Z,90.69
2023-05-08T05:11:10.080Z,90.22
2023-05-08T05:12:10.015Z,90.50
2023-05-08T05:13:09.929Z,90.41
2023-05-08T05:14:09.835Z,90.59
2023-05-08T05:15:09.763Z,90.31
2023-05-08T05:16:09.711Z,90.88
2023-05-08T05:17:09.591Z,90.69
2023-05-08T05:18:09.576Z,90.79
2023-05-08T05:19:09.428Z,90.69
2023-05-08T05:20:09.368Z,91.46
2023-05-08T05:21:09.270Z,91.55
2023-05-08T05:22:09.220Z,90.59
2023-05-08T05:23:09.230Z,92.03
2023-05-08T05:24:09.030Z,92.03
2023-05-08T05:25:08.941Z,92.41
2023-05-08T05:26:08.861Z,91.36
2023-05-08T05:27:08.777Z,91.60
2023-05-08T05:28:08.708Z,91.93
2023-05-08T05:29:08.614Z,92.36
2023-05-08T05:30:08.595Z,91.98
2023-05-08T05:31:08.482Z,92.83
2023-05-08T05:32:08.374Z,91.98
2023-05-08T05:33:08.357Z,91.98
2023-05-08T05:34:08.328Z,92.26
2023-05-08T05:35:08.144Z,91.50
2023-05-08T05:36:08.076Z,90.36
2023-05-08T05:37:07.989Z,91.60
2023-05-08T05:38:07.897Z,92.55
2023-05-08T05:39:07.813Z,91.98
2023-05-08T05:40:07.730Z,93.22
2023-05-08T05:41:07.655Z,92.55
2023-05-08T05:42:07.575Z,91.98
2023-05-08T05:43:07.492Z,93.31
2023-05-08T05:44:07.411Z,93.51
2023-05-08T05:45:07.327Z,92.55
2023-05-08T05:46:07.248Z,93.41
2023-05-08T05:47:07.224Z,93.41
2023-05-08T05:48:07.132Z,93.31
2023-05-08T05:49:07.014Z,93.60
2023-05-08T05:50:06.942Z,93.02
2023-05-08T05:51:06.847Z,92.55
2023-05-08T05:52:06.763Z,93.02
2023-05-08T05:53:06.682Z,93.41
2023-05-08T05:54:06.608Z,93.02
2023-05-08T05:55:06.524Z,93.31
2023-05-08T05:56:06.444Z,94.74
2023-05-08T05:57:06.365Z,93.88
2023-05-08T05:58:06.279Z,93.31
2023-05-08T05:59:06.204Z,93.60
2023-05-08T06:00:06.141Z,94.46
2023-05-08T06:01:06.046Z,93.41
2023-05-08T06:02:06.021Z,93.93
2023-05-08T06:03:05.977Z,93.88
2023-05-08T06:04:05.883Z,93.79
2023-05-08T06:05:05.721Z,93.55
2023-05-08T06:06:05.652Z,93.65
2023-05-08T06:07:05.572Z,93.26
2023-05-08T06:08:05.487Z,93.65
2023-05-08T06:09:05.408Z,93.26
2023-05-08T06:10:05.323Z,93.46
2023-05-08T06:11:05.244Z,94.12
2023-05-08T06:12:05.166Z,93.84
2023-05-08T06:13:05.108Z,93.55
2023-05-08T06:14:05.023Z,93.46
2023-05-08T06:15:04.926Z,93.74
2023-05-08T06:16:04.836Z,94.60
2023-05-08T06:17:04.949Z,94.51
2023-05-08T06:18:04.708Z,94.60
2023-05-08T06:19:04.599Z,94.60
2023-05-08T06:20:04.526Z,94.51
2023-05-08T06:21:04.442Z,94.65
2023-05-08T06:22:04.357Z,94.93
2023-05-08T06:23:04.283Z,95.46
2023-05-08T06:24:04.199Z,95.27
2023-05-08T06:25:04.120Z,95.51
2023-05-08T06:26:04.065Z,95.51
2023-05-08T06:27:03.975Z,94.36
2023-05-08T06:28:03.885Z,94.74
2023-05-08T06:29:03.801Z,95.79
2023-05-08T06:30:03.723Z,95.79
2023-05-08T06:31:03.814Z,95.79
2023-05-08T06:32:03.608Z,95.70
2023-05-08T06:33:03.552Z,96.08
2023-05-08T06:34:03.417Z,95.89
2023-05-08T06:35:03.333Z,96.27
2023-05-08T06:36:03.246Z,96.46
2023-05-08T06:37:03.164Z,96.37
2023-05-08T06:38:03.085Z,95.70
2023-05-08T06:39:03.006Z,96.94
2023-05-08T06:41:02.857Z,95.79
2023-05-08T06:42:02.770Z,95.79
2023-05-08T06:43:02.689Z,95.98
2023-05-08T06:44:02.611Z,96.17
2023-05-08T06:45:02.539Z,95.75
2023-05-08T06:46:02.487Z,95.94
2023-05-08T06:47:02.377Z,95.61
2023-05-08T06:48:02.396Z,95.65
2023-05-08T06:49:02.215Z,96.13
2023-05-08T06:50:02.135Z,96.51
2023-05-08T06:51:02.060Z,96.32
2023-05-08T06:52:01.983Z,95.75
2023-05-08T06:53:01.897Z,97.08
2023-05-08T06:54:01.815Z,97.28
2023-05-08T06:55:01.739Z,97.28
2023-05-08T06:56:01.653Z,97.08
2023-05-08T06:57:01.580Z,96.13
2023-05-08T06:58:01.497Z,96.27
2023-05-08T06:59:08.498Z,95.61
2023-05-08T07:00:01.356Z,96.84
2023-05-08T07:01:01.259Z,96.56
2023-05-08T07:02:01.321Z,96.37
2023-05-08T07:03:01.151Z,95.41
2023-05-08T07:04:01.026Z,96.18
2023-05-08T07:05:00.983Z,96.37
2023-05-08T07:06:00.871Z,95.98
2023-05-08T07:07:00.788Z,97.13
2023-05-08T07:08:00.709Z,96.42
2023-05-08T07:09:00.650Z,96.03
2023-05-08T07:10:00.560Z,95.94
2023-05-08T07:11:00.470Z,97.18
2023-05-08T07:12:00.400Z,97.08
2023-05-08T07:13:00.342Z,96.22
2023-05-08T07:14:00.232Z,96.22
2023-05-08T07:15:03.567Z,94.98
2023-05-08T07:16:00.142Z,96.70
2023-05-08T07:16:59.998Z,96.99
2023-05-08T07:17:59.953Z,95.94
2023-05-08T07:18:59.845Z,95.65
2023-05-08T07:19:59.761Z,97.08
2023-05-08T07:20:59.679Z,96.27
2023-05-08T07:21:59.618Z,97.80
2023-05-08T07:22:59.530Z,97.71
2023-05-08T07:23:59.448Z,97.04
2023-05-08T07:24:59.369Z,97.52
2023-05-08T07:25:59.312Z,98.28
2023-05-08T07:26:59.209Z,98.76
2023-05-08T07:28:01.150Z,97.61
2023-05-08T07:28:59.049Z,97.71
2023-05-08T07:29:58.978Z,99.24
2023-05-08T07:30:58.895Z,98.95
2023-05-08T07:31:58.865Z,98.86
2023-05-08T07:32:58.772Z,98.00
2023-05-08T07:33:58.660Z,98.28
2023-05-08T07:34:58.584Z,99.33
2023-05-08T07:35:58.502Z,98.95
2023-05-08T07:36:58.421Z,99.15
2023-05-08T07:37:58.420Z,98.76
2023-05-08T07:38:58.275Z,99.43
2023-05-08T07:39:58.192Z,99.99
2023-05-08T07:40:58.158Z,99.99
2023-05-08T07:41:58.037Z,99.43
2023-05-08T07:42:57.953Z,98.19
2023-05-08T07:43:57.873Z,99.99
2023-05-08T07:44:57.812Z,99.15
2023-05-08T07:45:57.723Z,99.99
2023-05-08T07:46:57.654Z,99.99
2023-05-08T07:47:57.640Z,99.99
2023-05-08T07:48:57.480Z,99.99
2023-05-08T07:49:57.401Z,99.99
2023-05-08T07:50:57.323Z,99.99
2023-05-08T07:51:57.325Z,99.99
2023-05-08T07:52:57.169Z,99.15
2023-05-08T07:53:57.092Z,99.62
2023-05-08T07:54:57.015Z,99.99
2023-05-08T07:55:56.947Z,99.91
2023-05-08T07:56:56.854Z,99.99
2023-05-08T07:57:56.778Z,99.99
2023-05-08T07:58:56.690Z,99.81
2023-05-08T07:59:56.619Z,99.99
2023-05-08T08:00:56.539Z,99.99
2023-05-08T08:01:56.522Z,99.91
2023-05-08T08:02:56.499Z,99.58
2023-05-08T08:03:56.434Z,99.29
2023-05-08T08:04:56.224Z,99.99
2023-05-08T08:05:56.149Z,99.99
2023-05-08T08:06:56.068Z,99.99
2023-05-08T08:07:55.989Z,99.99
2023-05-08T08:08:55.914Z,99.99
2023-05-08T08:09:55.957Z,99.99
2023-05-08T08:10:55.754Z,99.99
2023-05-08T08:11:55.705Z,99.99
2023-05-08T08:12:55.651Z,99.99
2023-05-08T08:13:55.523Z,99.99
2023-05-08T08:14:55.445Z,99.96
2023-05-08T08:15:55.376Z,99.99
2023-05-08T08:16:55.317Z,99.99
2023-05-08T08:17:55.254Z,99.99
2023-05-08T08:18:55.137Z,99.43
2023-05-08T08:19:55.067Z,99.99
2023-05-08T08:20:54.981Z,99.99
2023-05-08T08:21:54.910Z,99.99
2023-05-08T08:22:54.831Z,99.99
2023-05-08T08:23:54.750Z,99.99
2023-05-08T08:24:55.386Z,99.99
2023-05-08T08:25:54.685Z,99.99
2023-05-08T08:26:54.513Z,99.99
2023-05-08T08:27:54.444Z,99.99
2023-05-08T08:28:54.372Z,99.99
2023-05-08T08:30:04.474Z,99.99
2023-05-08T08:30:54.286Z,99.99
2023-05-08T08:31:54.135Z,99.99
2023-05-08T08:32:54.119Z,99.99
2023-05-08T08:33:53.979Z,99.99
2023-05-08T08:34:53.885Z,99.99
2023-05-08T08:35:53.821Z,99.99
2023-05-08T08:36:53.733Z,99.99
2023-05-08T08:37:53.652Z,99.99
2023-05-08T08:38:53.589Z,99.99
2023-05-08T08:39:53.509Z,99.99
2023-05-08T08:40:53.427Z,99.99
2023-05-08T08:41:53.468Z,99.99
2023-05-08T08:42:53.268Z,99.99
2023-05-08T08:43:53.188Z,99.99
2023-05-08T08:44:53.119Z,99.99
2023-05-08T08:45:53.096Z,99.99
2023-05-08T08:46:53.085Z,99.99
2023-05-08T08:47:52.983Z,99.99
2023-05-08T08:48:52.806Z,99.99
2023-05-08T08:49:52.720Z,99.99
2023-05-08T08:50:52.654Z,99.99
2023-05-08T08:51:52.584Z,99.99
2023-05-08T08:52:52.496Z,99.99
2023-05-08T08:53:52.412Z,99.99
2023-05-08T08:54:52.339Z,99.99
2023-05-08T08:55:52.267Z,99.99
2023-05-08T08:56:52.187Z,99.99
2023-05-08T08:57:52.209Z,99.99
2023-05-08T08:58:52.035Z,99.99
2023-05-08T08:59:51.958Z,99.99
2023-05-08T09:00:51.878Z,99.99
2023-05-08T09:01:51.807Z,99.99
2023-05-08T09:02:51.820Z,99.99
2023-05-08T09:03:51.744Z,99.99
2023-05-08T09:04:51.589Z,99.99
2023-05-08T09:05:51.491Z,99.99
2023-05-08T09:06:51.417Z,99.99
2023-05-08T09:07:51.340Z,99.99
2023-05-08T09:08:51.276Z,99.99
2023-05-08T09:09:51.179Z,99.99
2023-05-08T09:10:51.105Z,99.99
2023-05-08T09:11:51.027Z,99.99
2023-05-08T09:12:50.960Z,99.99
2023-05-08T09:13:50.977Z,99.99
2023-05-08T09:14:50.790Z,99.99
2023-05-08T09:15:50.788Z,99.99
2023-05-08T09:16:50.740Z,99.99
2023-05-08T09:17:50.645Z,99.99
2023-05-08T09:18:50.488Z,99.99
2023-05-08T09:19:50.414Z,99.99
2023-05-08T09:20:50.337Z,99.99
2023-05-08T09:21:50.257Z,99.99
2023-05-08T09:22:50.176Z,99.99
2023-05-08T09:23:50.102Z,99.99
2023-05-08T09:24:50.027Z,99.99
2023-05-08T09:25:49.953Z,99.99
2023-05-08T09:26:49.873Z,99.99
2023-05-08T09:27:49.797Z,99.99
2023-05-08T09:28:49.714Z,99.99
2023-05-08T09:29:49.742Z,99.99
2023-05-08T09:30:49.568Z,99.99
2023-05-08T09:31:49.531Z,99.99
2023-05-08T09:32:49.513Z,99.99
2023-05-08T09:33:49.333Z,99.99
2023-05-08T09:34:49.260Z,99.99
2023-05-08T09:35:49.181Z,99.99
2023-05-08T09:36:49.105Z,99.99
2023-05-08T09:37:49.026Z,99.99
2023-05-08T09:38:48.957Z,99.99
2023-05-08T09:39:48.882Z,99.99
2023-05-08T09:40:48.794Z,99.99
2023-05-08T09:41:48.718Z,99.99
2023-05-08T09:42:48.656Z,99.99
2023-05-08T09:43:48.567Z,99.99
2023-05-08T09:44:48.487Z,99.99
2023-05-08T09:45:48.546Z,99.99
2023-05-08T09:46:48.341Z,99.99
2023-05-08T09:47:48.323Z,99.99
2023-05-08T09:48:48.182Z,99.99
2023-05-08T09:49:48.110Z,99.99
2023-05-08T09:50:48.034Z,99.99
2023-05-08T09:51:47.969Z,99.99
2023-05-08T09:52:47.878Z,99.99
2023-05-08T09:53:47.817Z,99.99
2023-05-08T09:54:47.729Z,99.99
2023-05-08T09:55:47.680Z,99.99
2023-05-08T09:56:47.585Z,99.99
2023-05-08T09:57:47.501Z,99.99
2023-05-08T09:58:47.444Z,99.99
2023-05-08T09:59:47.346Z,99.99
2023-05-08T10:00:47.300Z,99.99
2023-05-08T10:01:47.291Z,99.99
2023-05-08T10:02:47.197Z,99.99
2023-05-08T10:03:47.121Z,99.99
2023-05-08T10:04:47.084Z,99.99
2023-05-08T10:05:46.886Z,99.99
2023-05-08T10:06:46.816Z,99.99
2023-05-08T10:07:46.737Z,99.99
2023-05-08T10:08:46.660Z,99.99
2023-05-08T10:09:50.761Z,99.99
2023-05-08T10:10:46.526Z,99.99
2023-05-08T10:11:46.437Z,99.99
2023-05-08T10:12:46.381Z,99.99
2023-05-08T10:13:46.309Z,99.99
2023-05-08T10:14:46.717Z,99.99
2023-05-08T10:15:46.130Z,99.99
2023-05-08T10:16:46.095Z,99.99
2023-05-08T10:17:46.134Z,99.99
2023-05-08T10:18:45.902Z,99.99
2023-05-08T10:19:45.822Z,99.99
2023-05-08T10:20:45.750Z,99.99
2023-05-08T10:21:45.676Z,99.99
2023-05-08T10:22:45.595Z,99.99
2023-05-08T10:23:45.515Z,99.99
2023-05-08T10:24:45.452Z,99.99
2023-05-08T10:25:45.367Z,99.99
2023-05-08T10:26:57.066Z,99.99
2023-05-08T10:27:45.221Z,99.99
2023-05-08T10:28:45.147Z,99.99
2023-05-08T10:29:45.069Z,99.99
2023-05-08T10:30:45.030Z,99.99
2023-05-08T10:31:44.968Z,99.99
2023-05-08T10:32:44.873Z,99.99
2023-05-08T10:33:44.867Z,99.99
2023-05-08T10:34:44.693Z,99.99
2023-05-08T10:35:44.616Z,99.99
2023-05-08T10:36:44.541Z,99.99
2023-05-08T10:37:44.457Z,99.99
2023-05-08T10:38:44.385Z,99.99
2023-05-08T10:39:44.316Z,99.99
2023-05-08T10:40:44.229Z,99.54
2023-05-08T10:41:44.166Z,99.44
2023-05-08T10:42:44.091Z,99.64
2023-05-08T10:43:44.013Z,99.73
2023-05-08T10:44:43.933Z,99.59
2023-05-08T10:45:43.857Z,98.92
2023-05-08T10:46:43.861Z,98.92
2023-05-08T10:47:43.737Z,99.01
2023-05-08T10:48:43.633Z,97.09
2023-05-08T10:49:43.557Z,94.78
2023-05-08T10:50:43.504Z,95.55
2023-05-08T10:51:43.415Z,95.84
2023-05-08T10:52:43.340Z,96.32
2023-05-08T10:53:43.257Z,95.55
2023-05-08T10:54:43.186Z,95.26
2023-05-08T10:55:43.108Z,95.12
2023-05-08T10:56:43.044Z,95.89
2023-05-08T10:57:42.968Z,96.08
2023-05-08T10:58:42.884Z,96.37
2023-05-08T10:59:42.814Z,95.50
2023-05-08T11:00:42.735Z,96.66
2023-05-08T11:01:42.716Z,96.27
2023-05-08T11:02:42.625Z,95.98
2023-05-08T11:03:42.665Z,96.56
2023-05-08T11:04:42.523Z,95.50
2023-05-08T11:05:42.365Z,95.31
2023-05-08T11:06:42.285Z,95.31
2023-05-08T11:07:42.215Z,95.31
2023-05-08T11:08:42.137Z,95.02
2023-05-08T11:09:42.065Z,95.21
2023-05-08T11:10:41.990Z,95.89
2023-05-08T11:11:41.923Z,95.31
2023-05-08T11:12:41.902Z,95.40
2023-05-08T11:13:41.768Z,96.42
2023-05-08T11:14:41.696Z,95.26
2023-05-08T11:15:41.654Z,94.39
2023-05-08T11:16:41.613Z,93.87
2023-05-08T11:17:41.509Z,92.80
2023-05-08T11:18:49.493Z,93.29
2023-05-08T11:19:41.322Z,93.77
2023-05-08T11:20:41.248Z,93.67
2023-05-08T11:21:41.178Z,92.71
2023-05-08T11:22:41.101Z,91.94
2023-05-08T11:23:41.026Z,92.90
2023-05-08T11:24:40.955Z,92.52
2023-05-08T11:25:40.876Z,93.38
2023-05-08T11:26:40.992Z,94.15
2023-05-08T11:27:40.735Z,95.12
2023-05-08T11:28:40.655Z,95.40
2023-05-08T11:29:40.585Z,94.15
2023-05-08T11:30:40.525Z,94.68
2023-05-08T11:31:40.528Z,94.01
2023-05-08T11:32:40.432Z,92.85
2023-05-08T11:33:40.281Z,92.57
2023-05-08T11:34:40.239Z,93.91
2023-05-08T11:35:40.135Z,94.49
2023-05-08T11:36:40.061Z,94.97
2023-05-08T11:37:39.996Z,94.49
2023-05-08T11:38:39.913Z,94.97
2023-05-08T11:39:39.831Z,95.17
2023-05-08T11:40:39.770Z,94.78
2023-05-08T11:41:39.704Z,94.78
2023-05-08T11:42:39.617Z,94.40
2023-05-08T11:43:39.547Z,95.07
2023-05-08T11:44:39.460Z,94.49
2023-05-08T11:45:39.394Z,95.07
2023-05-08T11:46:39.371Z,95.36
2023-05-08T11:47:39.371Z,94.40
2023-05-08T11:48:39.164Z,94.10
2023-05-08T11:49:39.098Z,94.10
2023-05-08T11:50:39.034Z,93.91
2023-05-08T11:51:38.970Z,93.15
2023-05-08T11:52:38.874Z,93.05
2023-05-08T11:53:38.818Z,93.33
2023-05-08T11:54:38.726Z,92.76
2023-05-08T11:55:38.648Z,92.85
2023-05-08T11:56:38.575Z,94.68
2023-05-08T11:57:38.500Z,94.97
2023-05-08T11:58:38.419Z,95.07
2023-05-08T11:59:38.342Z,96.47
2023-05-08T12:00:38.279Z,96.22
2023-05-08T12:01:38.203Z,96.32
2023-05-08T12:02:38.308Z,95.89
2023-05-08T12:03:38.268Z,94.92
2023-05-08T12:04:38.025Z,95.70
2023-05-08T12:05:37.898Z,96.56
2023-05-08T12:06:37.824Z,97.04
2023-05-08T12:07:37.740Z,97.52
2023-05-08T12:08:37.676Z,97.04
2023-05-08T12:09:37.599Z,96.90
2023-05-08T12:10:37.519Z,97.52
2023-05-08T12:11:37.449Z,98.19
2023-05-08T12:12:37.374Z,98.34
2023-05-08T12:13:37.364Z,98.96
2023-05-08T12:14:37.219Z,98.19
2023-05-08T12:15:37.142Z,98.58
2023-05-08T12:16:37.109Z,98.96
2023-05-08T12:17:37.021Z,99.44
2023-05-08T12:18:38.021Z,98.19
2023-05-08T12:19:36.865Z,97.52
2023-05-08T12:20:36.770Z,96.85
2023-05-08T12:21:36.699Z,95.70
2023-05-08T12:22:36.628Z,94.92
2023-05-08T12:23:36.551Z,96.27
2023-05-08T12:24:36.472Z,96.27
2023-05-08T12:25:36.394Z,96.08
2023-05-08T12:26:36.329Z,95.89
2023-05-08T12:27:36.255Z,96.47
2023-05-08T12:28:36.172Z,96.94
2023-05-08T12:29:36.099Z,97.52
2023-05-08T12:30:36.029Z,96.17
2023-05-08T12:31:36.017Z,95.98
2023-05-08T12:32:35.882Z,95.89
2023-05-08T12:33:35.795Z,95.98
2023-05-08T12:34:35.722Z,96.17
2023-05-08T12:35:35.645Z,96.27
2023-05-08T12:36:35.572Z,95.12
2023-05-08T12:37:35.512Z,94.35
2023-05-08T12:38:35.412Z,94.83
2023-05-08T12:39:35.347Z,95.21
2023-05-08T12:40:35.275Z,95.12
2023-05-08T12:41:35.310Z,95.36
2023-05-08T12:42:35.122Z,94.68
2023-05-08T12:43:35.040Z,94.78
2023-05-08T12:44:34.966Z,95.65
2023-05-08T12:45:34.896Z,95.07
2023-05-08T12:46:34.884Z,94.97
2023-05-08T12:47:34.812Z,94.15
2023-05-08T12:48:34.667Z,94.59
2023-05-08T12:49:34.594Z,94.54
2023-05-08T12:50:34.522Z,93.96
2023-05-08T12:51:34.454Z,94.25
2023-05-08T12:52:34.367Z,94.92